Time;durP1;ratioP1;P1;durP2;ratioP2;P2;SDS_P1;SDS_P2;PMS_P1;PMS_P2;Temp;Humidity;BMP_temperature;BMP_pressure;BME280_temperature;BME280_humidity;BME280_pressure;Samples;Min_cycle;Max_cycle;Signal;HPM_P1;HPM_P2
2023/02/05 00:02:06;;;;;;;13.80;12.85;;;9.40;99.90;;;;;;5007521;28;20038;-82
2023/02/05 00:04:33;;;;;;;14.50;13.13;;;9.30;99.90;;;;;;5010003;28;20050;-83
2023/02/05 00:06:59;;;;;;;13.25;12.13;;;9.30;99.90;;;;;;4992891;28;20046;-82
2023/02/05 00:09:27;;;;;;;14.18;12.77;;;9.20;99.90;;;;;;5010193;28;20034;-82
2023/02/05 00:11:54;;;;;;;14.95;13.65;;;9.20;99.90;;;;;;5005521;28;20364;-82
2023/02/05 00:14:20;;;;;;;13.73;12.70;;;9.30;99.90;;;;;;5002178;28;20026;-82
2023/02/05 00:16:46;;;;;;;13.77;12.65;;;9.30;99.90;;;;;;5013824;28;20034;-82
2023/02/05 00:19:12;;;;;;;13.25;12.15;;;9.30;99.90;;;;;;5013645;28;20387;-82
2023/02/05 00:21:38;;;;;;;13.90;12.80;;;9.30;99.90;;;;;;5013132;28;20042;-82
2023/02/05 00:24:05;;;;;;;12.57;11.82;;;9.30;99.90;;;;;;5013063;28;20034;-82
2023/02/05 00:26:31;;;;;;;13.25;12.38;;;9.30;99.90;;;;;;5011670;28;20042;-82
2023/02/05 00:28:57;;;;;;;13.30;11.90;;;9.20;99.90;;;;;;4994987;28;20045;-81
2023/02/05 00:31:23;;;;;;;13.10;12.10;;;9.20;99.90;;;;;;5012652;28;20407;-82
2023/02/05 00:33:49;;;;;;;13.52;12.63;;;9.30;99.90;;;;;;5009633;28;20026;-82
2023/02/05 00:36:16;;;;;;;13.65;12.68;;;9.30;99.90;;;;;;4987029;28;20045;-82
2023/02/05 00:38:42;;;;;;;13.10;12.10;;;9.30;99.90;;;;;;5011150;28;20026;-81
2023/02/05 00:41:09;;;;;;;12.15;11.32;;;9.30;99.90;;;;;;5012350;28;20414;-82
2023/02/05 00:43:36;;;;;;;12.80;12.00;;;9.20;99.90;;;;;;5008013;28;20409;-81
2023/02/05 00:46:02;;;;;;;12.60;11.70;;;9.20;99.90;;;;;;4995529;28;20034;-83
2023/02/05 00:48:28;;;;;;;13.02;11.90;;;9.20;99.90;;;;;;5012156;28;20034;-82
2023/02/05 00:50:54;;;;;;;12.07;11.27;;;9.20;99.90;;;;;;5012437;28;20046;-83
2023/02/05 00:53:20;;;;;;;12.73;11.90;;;9.20;99.90;;;;;;5007921;28;20033;-82
2023/02/05 00:55:46;;;;;;;12.23;11.48;;;9.20;99.90;;;;;;4993949;28;20054;-82
2023/02/05 00:58:13;;;;;;;12.13;11.30;;;9.30;99.90;;;;;;5014111;28;20057;-82
2023/02/05 01:00:39;;;;;;;12.88;12.18;;;9.30;99.90;;;;;;5012056;28;20037;-82
2023/02/05 01:03:05;;;;;;;11.82;11.02;;;9.30;99.90;;;;;;5012663;28;20038;-82
2023/02/05 01:05:33;;;;;;;12.25;11.30;;;9.30;99.90;;;;;;5011154;28;20057;-82
2023/02/05 01:07:59;;;;;;;11.07;10.45;;;9.30;99.90;;;;;;5009132;28;20030;-82
2023/02/05 01:10:25;;;;;;;12.50;11.70;;;9.30;99.90;;;;;;5011893;28;20041;-82
2023/02/05 01:12:51;;;;;;;13.38;11.98;;;9.20;99.90;;;;;;5011998;28;20491;-83
2023/02/05 01:15:17;;;;;;;12.30;11.38;;;9.30;99.90;;;;;;5011656;28;20032;-82
2023/02/05 01:17:43;;;;;;;12.40;11.60;;;9.30;99.90;;;;;;4996531;28;20391;-82
2023/02/05 01:20:10;;;;;;;12.52;11.63;;;9.30;99.90;;;;;;5003832;28;20027;-82
2023/02/05 01:22:36;;;;;;;11.60;10.93;;;9.30;99.90;;;;;;5012582;28;20037;-82
2023/02/05 01:25:03;;;;;;;12.27;11.45;;;9.30;99.90;;;;;;4995657;28;20451;-83
2023/02/05 01:27:29;;;;;;;12.30;11.35;;;9.30;99.90;;;;;;5012715;28;20045;-82
2023/02/05 01:29:55;;;;;;;12.07;11.25;;;9.30;99.90;;;;;;5010633;28;20131;-82
2023/02/05 01:32:21;;;;;;;12.52;11.75;;;9.30;99.90;;;;;;4994011;28;20038;-82
2023/02/05 01:34:47;;;;;;;12.50;11.68;;;9.30;99.90;;;;;;5027549;28;20357;-82
2023/02/05 01:37:13;;;;;;;12.43;11.73;;;9.30;99.90;;;;;;5027948;28;20029;-82
2023/02/05 01:39:39;;;;;;;13.02;12.13;;;9.30;99.90;;;;;;5009410;28;20026;-83
2023/02/05 01:42:19;;;;;;;12.95;12.10;;;9.40;99.90;;;;;;4994549;28;20038;-83
2023/02/05 01:45:31;;;;;;;12.27;11.57;;;9.50;99.90;;;;;;4992888;28;20030;-83
2023/02/05 01:48:03;;;;;;;12.80;11.90;;;9.50;99.90;;;;;;5032805;28;20037;-83
2023/02/05 01:50:41;;;;;;;11.95;11.15;;;9.40;99.90;;;;;;5028112;28;20037;-82
2023/02/05 01:53:37;;;;;;;13.13;12.20;;;9.40;99.90;;;;;;5000270;28;20073;-82
2023/02/05 01:56:15;;;;;;;13.15;12.40;;;9.40;99.90;;;;;;5003814;28;20046;-82
2023/02/05 01:59:07;;;;;;;13.43;12.23;;;9.50;99.90;;;;;;5014273;28;20029;-81
2023/02/05 02:01:34;;;;;;;13.20;12.40;;;9.60;99.90;;;;;;5013637;28;20034;-82
2023/02/05 02:04:03;;;;;;;12.95;12.15;;;9.70;99.90;;;;;;5011393;28;20045;-82
2023/02/05 02:06:31;;;;;;;13.23;12.30;;;9.70;99.90;;;;;;5009731;28;20493;-82
2023/02/05 02:08:57;;;;;;;12.98;12.07;;;9.80;99.90;;;;;;5008027;28;20031;-82
2023/02/05 02:11:23;;;;;;;12.82;12.02;;;9.80;99.90;;;;;;5011113;28;20050;-82
2023/02/05 02:13:50;;;;;;;12.93;12.07;;;9.70;99.90;;;;;;5002023;28;20379;-81
2023/02/05 02:16:16;;;;;;;13.13;12.32;;;9.80;99.90;;;;;;5011048;28;20511;-82
2023/02/05 02:18:42;;;;;;;13.30;12.05;;;9.90;99.90;;;;;;4992052;28;20057;-82
2023/02/05 02:21:52;;;;;;;12.80;11.98;;;9.90;99.90;;;;;;4986779;28;20366;-82
2023/02/05 02:24:30;;;;;;;13.18;12.38;;;10.00;99.90;;;;;;4911059;29;20051;-82
2023/02/05 02:27:01;;;;;;;12.82;12.05;;;10.00;99.90;;;;;;4884566;29;20138;-81
2023/02/05 02:29:48;;;;;;;13.05;12.15;;;10.10;99.90;;;;;;4902996;29;20055;-81
2023/02/05 02:32:28;;;;;;;13.43;12.52;;;10.00;99.90;;;;;;4879190;29;20056;-82
2023/02/05 02:34:59;;;;;;;13.63;12.73;;;9.90;99.90;;;;;;4893001;29;20088;-82
2023/02/05 02:37:38;;;;;;;13.77;12.67;;;9.90;99.90;;;;;;4874684;29;20044;-81
2023/02/05 02:40:28;;;;;;;12.77;11.98;;;9.90;99.90;;;;;;4877584;29;20040;-81
2023/02/05 02:42:59;;;;;;;13.32;12.23;;;9.90;99.90;;;;;;4894373;29;20437;-81
2023/02/05 02:45:26;;;;;;;13.52;12.43;;;9.80;99.90;;;;;;4869857;29;20036;-82
2023/02/05 02:47:54;;;;;;;12.82;12.05;;;9.70;99.90;;;;;;4895396;29;20045;-82
2023/02/05 02:50:25;;;;;;;12.82;11.90;;;9.60;99.90;;;;;;4908160;29;20024;-82
2023/02/05 02:52:51;;;;;;;12.35;11.45;;;9.60;99.90;;;;;;4909129;29;20032;-82
2023/02/05 02:55:18;;;;;;;13.10;12.25;;;9.70;99.90;;;;;;4881397;29;20047;-82
2023/02/05 02:57:45;;;;;;;13.77;12.75;;;9.70;99.90;;;;;;4896494;29;20040;-82
2023/02/05 03:00:14;;;;;;;12.90;12.00;;;9.80;99.90;;;;;;4890274;28;20047;-82
2023/02/05 03:02:40;;;;;;;12.25;11.38;;;9.70;99.90;;;;;;4990258;28;20104;-82
2023/02/05 03:05:10;;;;;;;13.20;12.15;;;9.80;99.90;;;;;;5005364;28;20041;-82
2023/02/05 03:07:45;;;;;;;12.80;11.95;;;9.60;99.90;;;;;;5011169;28;20025;-82
2023/02/05 03:10:26;;;;;;;12.20;11.40;;;9.50;99.90;;;;;;4993603;28;20029;-81
2023/02/05 03:12:54;;;;;;;12.88;11.95;;;9.60;99.90;;;;;;4995875;28;20038;-82
2023/02/05 03:15:20;;;;;;;12.98;11.95;;;9.60;99.90;;;;;;5010274;28;20044;-82
2023/02/05 03:17:46;;;;;;;12.93;11.85;;;9.60;99.90;;;;;;5011902;28;20033;-82
2023/02/05 03:20:15;;;;;;;12.68;11.68;;;9.70;99.90;;;;;;5010457;28;20060;-82
2023/02/05 03:22:41;;;;;;;13.18;12.38;;;9.80;99.90;;;;;;5009554;28;20037;-82
2023/02/05 03:25:08;;;;;;;12.85;12.02;;;9.70;99.90;;;;;;5011342;28;20042;-81
2023/02/05 03:27:34;;;;;;;12.57;11.65;;;9.70;99.90;;;;;;4991274;28;20041;-82
2023/02/05 03:30:00;;;;;;;13.32;12.27;;;9.60;99.90;;;;;;4987254;28;20478;-82
2023/02/05 03:32:29;;;;;;;13.20;12.40;;;9.70;99.90;;;;;;4995647;28;20045;-82
2023/02/05 03:35:10;;;;;;;13.82;12.73;;;9.60;99.90;;;;;;5029406;28;20024;-82
2023/02/05 03:37:48;;;;;;;13.10;12.30;;;9.70;99.90;;;;;;5028915;28;20044;-82
2023/02/05 03:40:20;;;;;;;12.77;11.77;;;9.70;99.90;;;;;;5022998;28;20037;-82
2023/02/05 03:43:04;;;;;;;13.43;12.50;;;9.60;99.90;;;;;;5009873;28;20037;-82
2023/02/05 03:45:39;;;;;;;13.65;12.50;;;9.50;99.90;;;;;;5025698;28;20307;-81
2023/02/05 03:48:18;;;;;;;12.52;11.65;;;9.60;99.90;;;;;;5001171;28;20375;-82
2023/02/05 03:50:58;;;;;;;12.35;11.45;;;9.50;99.90;;;;;;4992202;28;20510;-82
2023/02/05 03:53:30;;;;;;;13.15;12.25;;;9.40;99.90;;;;;;5010686;28;20042;-82
2023/02/05 03:56:09;;;;;;;12.52;11.68;;;9.40;99.90;;;;;;5008245;28;20421;-82
2023/02/05 03:58:41;;;;;;;12.80;11.80;;;9.50;99.90;;;;;;4996548;28;20390;-82
2023/02/05 04:01:08;;;;;;;13.40;12.40;;;9.50;99.90;;;;;;5012841;28;20022;-82
2023/02/05 04:03:34;;;;;;;13.65;12.65;;;9.40;99.90;;;;;;5032634;28;20030;-81
2023/02/05 04:06:00;;;;;;;13.70;12.55;;;9.40;99.90;;;;;;5016635;28;20414;-81
2023/02/05 04:08:26;;;;;;;13.45;12.55;;;9.30;99.90;;;;;;5031187;28;20052;-82
2023/02/05 04:10:52;;;;;;;13.65;12.55;;;9.40;99.90;;;;;;5029176;28;20390;-82
2023/02/05 04:13:18;;;;;;;14.25;13.05;;;9.50;99.90;;;;;;5033589;28;20040;-82
2023/02/05 04:15:46;;;;;;;13.23;12.27;;;9.50;99.90;;;;;;5033552;28;20022;-82
2023/02/05 04:18:12;;;;;;;14.13;13.02;;;9.40;99.90;;;;;;5017543;28;20364;-82
2023/02/05 04:20:38;;;;;;;13.43;12.35;;;9.30;99.90;;;;;;5012806;28;20025;-82
2023/02/05 04:23:04;;;;;;;13.48;12.48;;;9.20;99.90;;;;;;4998829;28;20041;-82
2023/02/05 04:25:31;;;;;;;14.77;13.57;;;9.20;99.90;;;;;;5016696;28;20379;-82
2023/02/05 04:27:57;;;;;;;14.77;13.20;;;9.10;99.90;;;;;;5017534;28;20021;-83
2023/02/05 04:30:23;;;;;;;14.88;13.50;;;9.10;99.90;;;;;;5009342;28;20387;-82
2023/02/05 04:32:49;;;;;;;14.25;13.18;;;9.10;99.90;;;;;;5012940;28;20053;-82
2023/02/05 04:35:15;;;;;;;13.85;12.65;;;9.00;99.90;;;;;;5011048;28;20456;-82
2023/02/05 04:37:41;;;;;;;14.35;13.35;;;9.00;99.90;;;;;;5005052;28;20491;-82
2023/02/05 04:40:08;;;;;;;14.80;13.70;;;9.10;99.90;;;;;;5007546;28;20025;-82
2023/02/05 04:42:34;;;;;;;15.13;13.73;;;9.00;99.90;;;;;;5013971;28;20041;-83
2023/02/05 04:45:00;;;;;;;14.38;13.20;;;9.00;99.90;;;;;;5012481;28;20018;-82
2023/02/05 04:47:28;;;;;;;14.23;13.25;;;9.10;99.90;;;;;;5015465;28;20052;-82
2023/02/05 04:49:54;;;;;;;14.02;12.95;;;9.20;99.90;;;;;;5031008;28;20033;-83
2023/02/05 04:52:20;;;;;;;15.10;13.85;;;9.20;99.90;;;;;;5033657;28;20056;-82
2023/02/05 04:54:46;;;;;;;15.88;14.63;;;9.20;99.90;;;;;;5014904;28;20041;-83
2023/02/05 04:57:12;;;;;;;15.07;13.93;;;9.30;99.90;;;;;;5034191;28;20040;-82
2023/02/05 04:59:38;;;;;;;14.63;13.13;;;9.30;99.90;;;;;;5008066;28;20475;-82
2023/02/05 05:02:05;;;;;;;14.40;13.30;;;9.30;99.90;;;;;;5007935;28;20038;-83
2023/02/05 05:04:31;;;;;;;14.65;13.45;;;9.20;99.90;;;;;;4995283;28;20053;-82
2023/02/05 05:06:57;;;;;;;13.95;12.75;;;9.00;99.90;;;;;;4995117;28;20061;-82
2023/02/05 05:09:24;;;;;;;13.82;12.77;;;9.00;99.90;;;;;;4989441;28;20035;-82
2023/02/05 05:11:51;;;;;;;13.77;12.82;;;9.10;99.90;;;;;;4996164;28;20042;-82
2023/02/05 05:14:17;;;;;;;14.18;12.95;;;9.10;99.90;;;;;;4978522;28;20060;-82
2023/02/05 05:16:43;;;;;;;14.00;13.00;;;9.10;99.90;;;;;;4994235;28;20045;-82
2023/02/05 05:19:09;;;;;;;14.27;13.18;;;9.10;99.90;;;;;;4994321;28;20049;-82
2023/02/05 05:21:35;;;;;;;15.07;13.77;;;9.10;99.90;;;;;;4996740;28;20033;-82
2023/02/05 05:24:01;;;;;;;14.18;13.07;;;9.20;99.90;;;;;;4979770;28;20042;-82
2023/02/05 05:26:28;;;;;;;14.52;13.45;;;9.20;99.90;;;;;;5013601;28;20045;-82
2023/02/05 05:28:55;;;;;;;14.63;13.57;;;9.10;99.90;;;;;;4995081;28;20038;-82
2023/02/05 05:31:21;;;;;;;14.27;13.02;;;9.10;99.90;;;;;;4988039;28;20042;-82
2023/02/05 05:33:47;;;;;;;14.10;13.00;;;9.10;99.90;;;;;;4979149;28;20042;-82
2023/02/05 05:36:13;;;;;;;14.95;13.55;;;9.10;99.90;;;;;;4993952;28;20049;-82
2023/02/05 05:38:39;;;;;;;13.85;12.85;;;9.10;99.90;;;;;;4990360;28;20375;-82
2023/02/05 05:43:52;;;;;;;14.05;13.00;;;9.20;99.90;;;;;;4994047;28;20045;-83
2023/02/05 05:46:21;;;;;;;14.90;13.65;;;9.20;99.90;;;;;;5011955;28;20037;-83
2023/02/05 05:48:52;;;;;;;14.00;12.90;;;9.30;99.90;;;;;;4998453;28;20021;-84
2023/02/05 05:51:18;;;;;;;14.55;13.27;;;9.30;99.90;;;;;;4977767;28;20494;-83
2023/02/05 05:53:44;;;;;;;14.77;13.68;;;9.20;99.90;;;;;;4991553;28;20038;-83
2023/02/05 05:56:10;;;;;;;14.20;13.15;;;9.20;99.90;;;;;;4994901;28;20030;-83
2023/02/05 05:58:36;;;;;;;14.13;12.95;;;9.10;99.90;;;;;;4996262;28;20048;-83
2023/02/05 06:01:03;;;;;;;14.90;13.30;;;9.20;99.90;;;;;;5021020;28;20025;-83
2023/02/05 06:03:29;;;;;;;14.50;13.50;;;9.30;99.90;;;;;;4997371;28;20471;-82
2023/02/05 06:05:58;;;;;;;14.20;12.90;;;9.30;99.90;;;;;;4995851;28;20240;-84
2023/02/05 06:08:24;;;;;;;14.63;13.15;;;9.20;99.90;;;;;;4996058;28;20053;-81
2023/02/05 06:10:50;;;;;;;14.40;13.25;;;9.20;99.90;;;;;;5000490;28;20037;-83
2023/02/05 06:13:16;;;;;;;14.35;13.20;;;9.20;99.90;;;;;;5031450;28;20045;-82
2023/02/05 06:15:43;;;;;;;13.95;12.65;;;9.20;99.90;;;;;;5014945;28;20040;-83
2023/02/05 06:18:09;;;;;;;13.88;12.68;;;9.10;99.90;;;;;;5014989;28;20041;-82
2023/02/05 06:20:35;;;;;;;14.77;12.70;;;9.00;99.90;;;;;;5014184;28;20398;-82
2023/02/05 06:23:01;;;;;;;14.65;13.25;;;9.10;99.90;;;;;;4998228;28;20052;-82
2023/02/05 06:25:27;;;;;;;18.63;16.88;;;9.10;99.90;;;;;;5014526;28;20025;-82
2023/02/05 06:27:53;;;;;;;77.22;45.22;;;9.20;99.90;;;;;;5015308;28;20048;-82
2023/02/05 06:30:19;;;;;;;27.45;22.20;;;9.20;99.90;;;;;;5014052;28;20025;-81
2023/02/05 06:32:45;;;;;;;19.80;17.88;;;9.20;99.90;;;;;;5014103;28;20053;-83
2023/02/05 06:35:11;;;;;;;15.90;14.30;;;9.10;99.90;;;;;;5014309;28;20048;-83
2023/02/05 06:37:37;;;;;;;17.65;16.05;;;9.10;99.90;;;;;;5003234;28;20038;-82
2023/02/05 06:40:04;;;;;;;19.70;18.08;;;9.20;99.90;;;;;;5012660;28;20041;-82
2023/02/05 06:42:30;;;;;;;21.40;19.38;;;9.20;99.90;;;;;;5003583;28;20041;-81
2023/02/05 06:44:56;;;;;;;18.70;17.02;;;9.40;99.90;;;;;;5008465;28;20048;-82
2023/02/05 06:47:22;;;;;;;15.10;13.77;;;9.40;99.90;;;;;;5014597;28;20037;-81
2023/02/05 06:49:48;;;;;;;16.92;15.23;;;9.40;99.90;;;;;;5014445;28;20034;-82
2023/02/05 06:52:15;;;;;;;14.75;13.43;;;9.30;99.90;;;;;;5026462;28;20045;-82
2023/02/05 06:54:43;;;;;;;14.57;13.25;;;9.30;99.90;;;;;;4995203;28;20045;-82
2023/02/05 06:57:10;;;;;;;15.40;13.85;;;9.30;99.90;;;;;;4994680;28;20050;-82
2023/02/05 06:59:36;;;;;;;14.75;13.20;;;9.30;99.90;;;;;;4995536;28;20030;-82
2023/02/05 07:02:02;;;;;;;14.32;13.27;;;9.30;99.90;;;;;;4994557;28;20387;-83
2023/02/05 07:04:29;;;;;;;17.60;15.98;;;9.10;99.90;;;;;;5011308;28;20054;-83
2023/02/05 07:06:56;;;;;;;17.70;16.10;;;9.20;99.90;;;;;;5012780;28;20040;-84
2023/02/05 07:09:23;;;;;;;22.35;19.92;;;9.30;99.90;;;;;;5010434;28;20046;-84
2023/02/05 07:11:49;;;;;;;20.13;18.23;;;9.30;99.90;;;;;;4978236;28;20058;-83
2023/02/05 07:14:15;;;;;;;17.13;15.55;;;9.20;99.90;;;;;;5007726;28;20034;-83
2023/02/05 07:16:41;;;;;;;15.85;14.32;;;9.20;99.90;;;;;;5013601;28;20042;-84
2023/02/05 07:19:07;;;;;;;16.27;14.68;;;9.20;99.90;;;;;;5014618;28;20029;-85
2023/02/05 07:21:33;;;;;;;15.88;14.50;;;9.20;99.90;;;;;;5031885;28;20366;-83
2023/02/05 07:24:00;;;;;;;16.48;14.88;;;9.30;99.90;;;;;;4992433;28;20049;-82
2023/02/05 07:26:26;;;;;;;16.05;14.30;;;9.30;99.90;;;;;;5018364;28;20037;-82
2023/02/05 07:28:52;;;;;;;15.70;14.10;;;9.20;99.90;;;;;;5018297;28;20038;-83
2023/02/05 07:31:18;;;;;;;15.00;13.70;;;9.20;99.90;;;;;;5006957;28;20038;-83
2023/02/05 07:33:45;;;;;;;16.55;14.82;;;9.20;99.90;;;;;;4996702;28;20041;-82
2023/02/05 07:36:15;;;;;;;17.25;15.35;;;9.30;99.90;;;;;;5010897;28;20034;-88
2023/02/05 07:38:41;;;;;;;17.15;15.38;;;9.30;99.90;;;;;;5002345;28;20486;-86
2023/02/05 07:41:09;;;;;;;16.25;14.73;;;9.40;99.90;;;;;;4995518;28;20060;-87
2023/02/05 07:43:35;;;;;;;17.35;15.77;;;9.40;99.90;;;;;;4994792;28;20506;-84
2023/02/05 07:46:03;;;;;;;16.48;14.45;;;9.50;99.90;;;;;;4999585;28;20034;-86
2023/02/05 07:48:29;;;;;;;16.02;14.82;;;9.40;99.90;;;;;;5029982;28;20041;-86
2023/02/05 07:50:56;;;;;;;16.17;14.57;;;9.30;99.90;;;;;;4997392;28;20030;-85
2023/02/05 07:53:22;;;;;;;16.50;14.77;;;9.30;99.90;;;;;;5014373;28;20518;-83
2023/02/05 07:55:48;;;;;;;16.83;15.32;;;9.20;99.90;;;;;;5014442;28;20033;-83
2023/02/05 07:58:14;;;;;;;15.73;14.30;;;9.20;99.90;;;;;;5014611;28;20375;-82
2023/02/05 08:00:40;;;;;;;16.58;13.77;;;9.20;99.90;;;;;;5014057;28;20034;-86
2023/02/05 08:03:06;;;;;;;16.40;14.98;;;9.10;99.90;;;;;;5013682;28;20464;-86
2023/02/05 08:05:32;;;;;;;17.63;14.45;;;9.20;99.90;;;;;;4995105;28;20058;-86
2023/02/05 08:07:58;;;;;;;16.30;15.00;;;9.30;99.90;;;;;;5015771;28;20034;-85
2023/02/05 08:10:25;;;;;;;15.80;14.48;;;9.30;99.90;;;;;;5019814;28;20048;-88
2023/02/05 08:12:51;;;;;;;21.73;19.65;;;9.40;99.90;;;;;;5009974;28;20042;-84
2023/02/05 08:15:17;;;;;;;26.38;21.23;;;9.40;99.90;;;;;;4983084;28;20427;-85
2023/02/05 08:17:43;;;;;;;23.65;19.13;;;9.50;99.90;;;;;;5000983;28;20042;-84
2023/02/05 08:20:10;;;;;;;39.40;24.60;;;9.50;99.90;;;;;;5011729;28;20030;-84
2023/02/05 08:22:37;;;;;;;23.70;20.55;;;9.30;99.90;;;;;;5014794;28;20045;-85
2023/02/05 08:25:05;;;;;;;19.85;17.90;;;9.40;99.90;;;;;;5027677;28;20504;-84
2023/02/05 08:27:32;;;;;;;20.38;18.35;;;9.30;99.90;;;;;;5011207;28;20053;-84
2023/02/05 08:29:58;;;;;;;33.05;23.38;;;9.30;99.90;;;;;;4995944;28;20049;-85
2023/02/05 08:32:24;;;;;;;23.58;18.63;;;9.30;99.90;;;;;;5033390;28;20053;-84
2023/02/05 08:34:50;;;;;;;16.25;14.85;;;9.20;99.90;;;;;;5033084;28;20036;-85
2023/02/05 08:37:16;;;;;;;18.13;16.42;;;9.20;99.90;;;;;;5032975;28;20383;-84
2023/02/05 08:39:42;;;;;;;16.52;15.05;;;9.20;99.90;;;;;;5014022;28;20037;-83
2023/02/05 08:42:08;;;;;;;15.93;14.38;;;9.20;99.90;;;;;;5006759;28;20379;-85
2023/02/05 08:44:34;;;;;;;20.23;18.05;;;9.20;99.90;;;;;;5013479;28;20048;-85
2023/02/05 08:47:00;;;;;;;16.05;14.75;;;9.20;99.90;;;;;;5033648;28;20026;-85
2023/02/05 08:49:26;;;;;;;15.15;13.60;;;9.20;99.90;;;;;;5025900;28;20028;-87
2023/02/05 08:51:53;;;;;;;18.90;17.25;;;9.20;99.90;;;;;;5000425;28;20045;-87
2023/02/05 08:54:19;;;;;;;16.13;14.80;;;9.20;99.90;;;;;;5009829;28;20471;-88
2023/02/05 08:56:47;;;;;;;19.05;17.65;;;9.30;99.90;;;;;;5002598;28;20490;-83
2023/02/05 08:59:14;;;;;;;20.05;18.02;;;9.50;99.90;;;;;;5013736;28;20025;-85
2023/02/05 09:01:40;;;;;;;17.23;15.60;;;9.60;99.90;;;;;;5029601;28;20160;-87
2023/02/05 09:04:06;;;;;;;19.60;17.77;;;9.60;99.90;;;;;;5001635;28;20046;-88
2023/02/05 09:06:32;;;;;;;17.95;16.35;;;9.60;99.90;;;;;;5026339;28;20394;-87
2023/02/05 09:08:59;;;;;;;17.73;16.30;;;9.50;99.90;;;;;;5029453;28;20040;-88
2023/02/05 09:11:25;;;;;;;19.05;17.30;;;9.50;99.90;;;;;;5014584;28;20131;-89
2023/02/05 09:13:52;;;;;;;16.73;15.13;;;9.50;99.90;;;;;;5030211;28;20049;-86
2023/02/05 09:16:18;;;;;;;16.88;15.35;;;9.50;99.90;;;;;;5021550;28;20038;-86
2023/02/05 09:18:44;;;;;;;15.95;14.45;;;9.60;99.90;;;;;;5028651;28;20041;-88
2023/02/05 09:21:10;;;;;;;17.10;15.40;;;9.60;99.90;;;;;;5023592;28;20029;-82
2023/02/05 09:23:36;;;;;;;19.58;17.63;;;9.60;99.90;;;;;;5024009;28;20026;-83
2023/02/05 09:26:03;;;;;;;16.92;15.55;;;9.60;99.90;;;;;;4999051;28;20045;-85
2023/02/05 09:28:29;;;;;;;17.50;15.88;;;9.60;99.90;;;;;;5022265;28;20045;-84
2023/02/05 09:30:55;;;;;;;26.80;24.70;;;9.60;99.90;;;;;;5015077;28;20037;-84
2023/02/05 09:33:21;;;;;;;18.60;16.95;;;9.60;99.90;;;;;;4997025;28;20061;-84
2023/02/05 09:35:47;;;;;;;23.38;21.42;;;9.70;99.90;;;;;;4996752;28;20029;-85
2023/02/05 09:38:14;;;;;;;19.67;17.98;;;9.70;99.90;;;;;;4996322;28;20029;-85
2023/02/05 09:40:52;;;;;;;26.40;23.95;;;9.70;99.90;;;;;;4995955;28;20387;-85
2023/02/05 09:43:34;;;;;;;24.55;22.70;;;9.70;99.90;;;;;;5008029;28;20037;-85
2023/02/05 09:46:18;;;;;;;29.65;27.13;;;9.70;99.90;;;;;;5012222;28;20022;-86
2023/02/05 09:48:48;;;;;;;27.08;24.88;;;9.70;99.90;;;;;;5016804;28;20034;-87
2023/02/05 09:51:20;;;;;;;34.83;31.80;;;9.70;99.90;;;;;;4996075;28;20026;-86
2023/02/05 09:53:50;;;;;;;31.25;28.95;;;9.80;99.90;;;;;;4988482;28;20045;-85
2023/02/05 09:56:16;;;;;;;29.67;27.15;;;9.90;99.90;;;;;;5013574;28;20505;-88
2023/02/05 09:58:45;;;;;;;30.52;28.15;;;9.90;99.90;;;;;;5012260;28;20475;-84
2023/02/05 10:01:22;;;;;;;26.40;24.33;;;10.00;99.90;;;;;;5031036;28;20033;-84
2023/02/05 10:03:57;;;;;;;29.92;27.42;;;10.00;99.90;;;;;;5016379;28;20052;-86
2023/02/05 10:06:47;;;;;;;21.30;19.35;;;10.10;99.90;;;;;;4997262;28;20506;-85
2023/02/05 10:09:39;;;;;;;26.60;24.42;;;10.30;99.90;;;;;;4996265;28;20021;-87
2023/02/05 10:12:11;;;;;;;;;;;10.70;99.90;;;;;;5025760;28;20056;-86
2023/02/05 10:14:58;;;;;;;16.90;15.48;;;10.60;99.90;;;;;;5027773;28;19920;-87
2023/02/05 10:17:44;;;;;;;22.20;20.08;;;10.60;99.90;;;;;;5018211;28;20041;-89
2023/02/05 10:20:22;;;;;;;27.88;25.38;;;10.50;99.90;;;;;;5010022;28;20040;-87
2023/02/05 10:23:05;;;;;;;22.70;20.60;;;10.50;99.90;;;;;;5029435;28;20029;-88
2023/02/05 10:25:56;;;;;;;25.02;23.13;;;10.50;99.90;;;;;;5013502;28;20033;-88
2023/02/05 10:28:58;;;;;;;36.95;34.20;;;10.50;99.90;;;;;;5030626;28;20040;-86
2023/02/05 10:31:34;;;;;;;30.02;27.92;;;10.60;99.90;;;;;;5030877;28;20034;-92
2023/02/05 10:34:39;;;;;;;29.00;26.98;;;10.60;99.90;;;;;;5020119;28;20113;-89
2023/02/05 10:37:09;;;;;;;34.47;31.25;;;10.60;99.90;;;;;;5031869;28;20037;-89
2023/02/05 10:39:35;;;;;;;33.17;30.67;;;10.60;99.90;;;;;;5014891;28;20032;-88
2023/02/05 10:42:25;;;;;;;31.33;28.45;;;10.70;99.90;;;;;;5004905;28;20022;-87
2023/02/05 10:45:00;;;;;;;28.52;26.08;;;10.80;99.90;;;;;;5011664;28;20034;-89
2023/02/05 10:47:38;;;;;;;31.00;28.70;;;10.80;99.90;;;;;;4997421;28;20045;-89
2023/02/05 10:50:32;;;;;;;33.50;30.98;;;10.80;99.90;;;;;;5031309;28;20040;-92
2023/02/05 10:52:58;;;;;;;38.28;35.38;;;10.70;99.90;;;;;;5017746;28;20042;-85
2023/02/05 10:55:24;;;;;;;43.25;40.33;;;10.80;99.90;;;;;;5011435;28;20478;-88
2023/02/05 10:57:50;;;;;;;44.05;40.55;;;10.80;99.90;;;;;;5003923;28;20041;-90
2023/02/05 11:00:18;;;;;;;44.80;41.50;;;10.90;99.90;;;;;;5027656;28;20025;-89
2023/02/05 11:02:53;;;;;;;49.42;46.10;;;10.90;99.90;;;;;;5006498;28;20026;-90
2023/02/05 11:05:36;;;;;;;46.88;43.92;;;11.00;99.90;;;;;;5018810;28;20037;-91
2023/02/05 11:08:03;;;;;;;57.28;53.45;;;11.00;99.90;;;;;;5014552;28;20426;-88
2023/02/05 11:10:33;;;;;;;44.83;41.60;;;11.20;99.90;;;;;;4994690;28;20044;-91
2023/02/05 11:13:14;;;;;;;34.70;32.23;;;11.40;99.90;;;;;;4998142;28;20046;-92
2023/02/05 11:16:12;;;;;;;37.90;35.30;;;11.50;99.90;;;;;;5010369;28;20615;-89
2023/02/05 11:18:40;;;;;;;35.35;32.80;;;11.50;99.90;;;;;;4982647;28;20046;-88
2023/02/05 11:21:07;;;;;;;45.13;42.00;;;11.50;99.90;;;;;;5010185;28;20414;-90
2023/02/05 11:23:38;;;;;;;30.40;28.08;;;11.60;99.90;;;;;;5011809;28;20037;-89
2023/02/05 11:26:14;;;;;;;21.88;20.10;;;11.70;99.90;;;;;;5013778;28;20480;-89
2023/02/05 11:28:40;;;;;;;20.88;18.95;;;12.00;99.90;;;;;;5015117;28;20045;-89
2023/02/05 11:31:26;;;;;;;22.13;19.75;;;12.00;99.90;;;;;;5004354;28;20041;-89
2023/02/05 11:34:07;;;;;;;20.27;18.33;;;12.00;99.90;;;;;;4994143;28;20042;-89
2023/02/05 11:36:37;;;;;;;17.02;15.45;;;12.10;99.90;;;;;;5012231;28;20061;-89
2023/02/05 11:39:04;;;;;;;19.42;17.55;;;11.90;99.90;;;;;;4994960;28;20034;-88
2023/02/05 11:41:46;;;;;;;16.90;15.10;;;11.90;99.90;;;;;;4985793;28;20037;-89
2023/02/05 11:44:18;;;;;;;15.27;14.27;;;11.80;99.90;;;;;;4996441;28;20385;-89
2023/02/05 11:46:44;;;;;;;25.77;23.77;;;11.70;99.90;;;;;;4992219;28;20406;-89
2023/02/05 11:49:21;;;;;;;28.08;25.65;;;11.70;99.90;;;;;;4988026;28;20495;-90
2023/02/05 11:51:50;;;;;;;29.88;27.40;;;11.70;99.90;;;;;;4994524;28;20026;-90
2023/02/05 11:54:24;;;;;;;26.42;24.30;;;11.80;99.90;;;;;;5000123;28;20064;-90
2023/02/05 11:57:13;;;;;;;28.48;26.02;;;11.80;99.90;;;;;;5013994;28;20032;-88
2023/02/05 11:59:39;;;;;;;21.23;19.35;;;11.80;99.90;;;;;;5031199;28;20030;-90
2023/02/05 12:02:27;;;;;;;18.40;16.88;;;11.80;99.90;;;;;;5031227;28;20044;-89
2023/02/05 12:04:59;;;;;;;21.48;19.67;;;11.90;99.90;;;;;;5026488;28;20045;-91
2023/02/05 12:07:26;;;;;;;19.83;18.23;;;12.00;99.90;;;;;;5008871;28;20034;-89
2023/02/05 12:09:57;;;;;;;18.58;17.02;;;12.10;99.90;;;;;;4975401;28;20407;-90
2023/02/05 12:12:30;;;;;;;14.30;13.38;;;12.10;99.90;;;;;;5000885;28;20026;-89
2023/02/05 12:15:08;;;;;;;19.30;17.52;;;12.10;99.90;;;;;;4997362;28;20037;-90
2023/02/05 12:17:56;;;;;;;18.48;17.15;;;12.10;99.90;;;;;;5002898;28;20038;-91
2023/02/05 12:20:25;;;;;;;22.92;21.23;;;12.00;99.90;;;;;;5000945;28;20368;-89
2023/02/05 12:22:55;;;;;;;38.67;36.08;;;11.90;99.90;;;;;;4997199;28;20038;-89
2023/02/05 12:25:21;;;;;;;42.25;39.80;;;11.70;99.90;;;;;;5005304;28;20053;-90
2023/02/05 12:28:08;;;;;;;30.05;28.13;;;11.60;99.90;;;;;;4995530;28;20034;-90
2023/02/05 12:30:56;;;;;;;18.25;16.98;;;11.40;99.90;;;;;;5022495;28;20034;-90
2023/02/05 12:33:27;;;;;;;18.92;17.40;;;11.20;99.90;;;;;;5015031;28;20045;-89
2023/02/05 12:35:59;;;;;;;19.00;17.40;;;11.20;99.90;;;;;;5015055;28;20041;-91
2023/02/05 12:38:39;;;;;;;19.80;17.63;;;11.20;99.90;;;;;;5014299;28;20329;-89
2023/02/05 12:41:23;;;;;;;16.17;14.98;;;11.20;99.90;;;;;;5013741;28;20026;-89
2023/02/05 12:43:52;;;;;;;15.63;14.63;;;11.30;99.90;;;;;;5012572;28;20030;-91
2023/02/05 12:46:53;;;;;;;18.08;16.60;;;11.20;99.90;;;;;;4993576;28;20035;-89
2023/02/05 12:49:23;;;;;;;17.23;15.82;;;11.30;99.90;;;;;;4973004;28;20035;-91
2023/02/05 12:52:09;;;;;;;21.52;19.88;;;11.30;99.90;;;;;;4971741;28;20046;-89
2023/02/05 12:54:50;;;;;;;20.00;18.23;;;11.30;99.90;;;;;;4971428;28;20049;-90